Terminal Aerodrome Forecast
Issued by NWS Louisville, KY

Home | Current Version | Previous Version | Text Only | Print | Product List | Glossary On
Versions: 1 2 3 4 5 6 7 8 9 10 11 12 13 14 15 16 17 18 19 20
615
FTUS43 KLMK 011011 AAA
TAFLEX
TAF AMD
KLEX 011011Z 0110/0206 18005KT P6SM BKN060
     FM011500 24008KT P6SM SCT025 BKN035 PROB30 0120/0124 5SM -TSRA
      BKN030CB
     FM020000 21006KT P6SM BKN060=

USA.gov is the U.S. government's official web portal to all federal, state and local government web resources and services.